sensor_id;sensor_type;location;lat;lon;timestamp;P1;durP1;ratioP1;P2;durP2;ratioP2
37321;SDS011;23697;48.684;9.032;2022-08-14T00:02:16;4.43;;;2.60;;
37321;SDS011;23697;48.684;9.032;2022-08-14T00:04:43;6.63;;;2.70;;
37321;SDS011;23697;48.684;9.032;2022-08-14T00:07:10;6.55;;;3.00;;
37321;SDS011;23697;48.684;9.032;2022-08-14T00:09:37;5.60;;;2.90;;
37321;SDS011;23697;48.684;9.032;2022-08-14T00:12:05;5.15;;;2.70;;
37321;SDS011;23697;48.684;9.032;2022-08-14T00:14:33;4.00;;;2.97;;
37321;SDS011;23697;48.684;9.032;2022-08-14T00:17:01;3.80;;;2.63;;
37321;SDS011;23697;48.684;9.032;2022-08-14T00:19:28;4.57;;;2.58;;
37321;SDS011;23697;48.684;9.032;2022-08-14T00:21:54;4.47;;;2.70;;
37321;SDS011;23697;48.684;9.032;2022-08-14T00:24:22;4.28;;;2.70;;
37321;SDS011;23697;48.684;9.032;2022-08-14T00:26:49;3.80;;;2.50;;
37321;SDS011;23697;48.684;9.032;2022-08-14T00:29:17;4.53;;;2.50;;
37321;SDS011;23697;48.684;9.032;2022-08-14T00:31:45;4.93;;;2.60;;
37321;SDS011;23697;48.684;9.032;2022-08-14T00:34:12;3.35;;;2.47;;
37321;SDS011;23697;48.684;9.032;2022-08-14T00:36:39;4.57;;;2.45;;
37321;SDS011;23697;48.684;9.032;2022-08-14T00:39:06;4.85;;;2.55;;
37321;SDS011;23697;48.684;9.032;2022-08-14T00:41:33;4.70;;;2.55;;
37321;SDS011;23697;48.684;9.032;2022-08-14T00:44:00;3.40;;;2.70;;
37321;SDS011;23697;48.684;9.032;2022-08-14T00:46:27;4.78;;;2.72;;
37321;SDS011;23697;48.684;9.032;2022-08-14T00:48:56;4.43;;;3.00;;
37321;SDS011;23697;48.684;9.032;2022-08-14T00:51:23;4.32;;;2.72;;
37321;SDS011;23697;48.684;9.032;2022-08-14T00:53:51;4.63;;;2.75;;
37321;SDS011;23697;48.684;9.032;2022-08-14T00:56:17;5.00;;;2.60;;
37321;SDS011;23697;48.684;9.032;2022-08-14T00:58:45;4.50;;;2.90;;
37321;SDS011;23697;48.684;9.032;2022-08-14T01:01:12;4.13;;;2.70;;
37321;SDS011;23697;48.684;9.032;2022-08-14T01:03:42;3.67;;;2.80;;
37321;SDS011;23697;48.684;9.032;2022-08-14T01:06:11;3.83;;;2.85;;
37321;SDS011;23697;48.684;9.032;2022-08-14T01:08:41;4.63;;;2.53;;
37321;SDS011;23697;48.684;9.032;2022-08-14T01:11:08;4.93;;;3.00;;
37321;SDS011;23697;48.684;9.032;2022-08-14T01:13:40;6.40;;;3.00;;
37321;SDS011;23697;48.684;9.032;2022-08-14T01:16:09;4.50;;;2.92;;
37321;SDS011;23697;48.684;9.032;2022-08-14T01:18:37;4.63;;;2.63;;
37321;SDS011;23697;48.684;9.032;2022-08-14T01:21:24;4.00;;;2.90;;
37321;SDS011;23697;48.684;9.032;2022-08-14T01:23:56;3.95;;;3.00;;
37321;SDS011;23697;48.684;9.032;2022-08-14T01:26:24;4.57;;;2.60;;
37321;SDS011;23697;48.684;9.032;2022-08-14T01:28:53;5.65;;;3.00;;
37321;SDS011;23697;48.684;9.032;2022-08-14T01:31:22;5.63;;;2.85;;
37321;SDS011;23697;48.684;9.032;2022-08-14T01:33:52;4.05;;;2.85;;
37321;SDS011;23697;48.684;9.032;2022-08-14T01:36:21;4.97;;;3.03;;
37321;SDS011;23697;48.684;9.032;2022-08-14T01:38:50;4.03;;;3.00;;
37321;SDS011;23697;48.684;9.032;2022-08-14T01:41:21;4.25;;;2.70;;
37321;SDS011;23697;48.684;9.032;2022-08-14T01:43:51;3.78;;;2.90;;
37321;SDS011;23697;48.684;9.032;2022-08-14T01:46:23;5.78;;;3.03;;
37321;SDS011;23697;48.684;9.032;2022-08-14T01:48:50;6.40;;;3.08;;
37321;SDS011;23697;48.684;9.032;2022-08-14T01:51:20;3.80;;;2.70;;
37321;SDS011;23697;48.684;9.032;2022-08-14T01:53:50;5.28;;;2.78;;
37321;SDS011;23697;48.684;9.032;2022-08-14T01:56:19;5.95;;;3.10;;
37321;SDS011;23697;48.684;9.032;2022-08-14T01:58:48;3.80;;;2.88;;
37321;SDS011;23697;48.684;9.032;2022-08-14T02:01:16;4.47;;;2.75;;
37321;SDS011;23697;48.684;9.032;2022-08-14T02:03:44;4.60;;;2.90;;
37321;SDS011;23697;48.684;9.032;2022-08-14T02:06:12;6.63;;;3.10;;
37321;SDS011;23697;48.684;9.032;2022-08-14T02:08:40;4.07;;;3.08;;
37321;SDS011;23697;48.684;9.032;2022-08-14T02:11:09;4.80;;;3.00;;
37321;SDS011;23697;48.684;9.032;2022-08-14T02:13:47;5.93;;;3.10;;
37321;SDS011;23697;48.684;9.032;2022-08-14T02:16:16;4.55;;;2.70;;
37321;SDS011;23697;48.684;9.032;2022-08-14T02:18:45;4.28;;;3.13;;
37321;SDS011;23697;48.684;9.032;2022-08-14T02:21:13;4.03;;;2.92;;
37321;SDS011;23697;48.684;9.032;2022-08-14T02:23:43;5.90;;;3.10;;
37321;SDS011;23697;48.684;9.032;2022-08-14T02:26:16;3.92;;;3.00;;
37321;SDS011;23697;48.684;9.032;2022-08-14T02:28:45;4.78;;;3.05;;
37321;SDS011;23697;48.684;9.032;2022-08-14T02:31:13;7.70;;;2.80;;
37321;SDS011;23697;48.684;9.032;2022-08-14T02:33:40;3.95;;;3.25;;
37321;SDS011;23697;48.684;9.032;2022-08-14T02:36:08;7.47;;;3.30;;
37321;SDS011;23697;48.684;9.032;2022-08-14T02:38:37;5.47;;;3.20;;
37321;SDS011;23697;48.684;9.032;2022-08-14T02:41:07;4.32;;;2.95;;
37321;SDS011;23697;48.684;9.032;2022-08-14T02:43:37;6.30;;;3.28;;
37321;SDS011;23697;48.684;9.032;2022-08-14T02:46:05;4.95;;;3.17;;
37321;SDS011;23697;48.684;9.032;2022-08-14T02:48:34;6.43;;;2.90;;
37321;SDS011;23697;48.684;9.032;2022-08-14T02:51:04;5.05;;;3.17;;
37321;SDS011;23697;48.684;9.032;2022-08-14T02:53:32;4.68;;;3.08;;
37321;SDS011;23697;48.684;9.032;2022-08-14T02:56:00;4.78;;;3.25;;
37321;SDS011;23697;48.684;9.032;2022-08-14T02:58:28;7.25;;;3.40;;
37321;SDS011;23697;48.684;9.032;2022-08-14T03:00:57;4.53;;;3.10;;
37321;SDS011;23697;48.684;9.032;2022-08-14T03:03:25;6.03;;;3.50;;
37321;SDS011;23697;48.684;9.032;2022-08-14T03:05:52;4.85;;;3.17;;
37321;SDS011;23697;48.684;9.032;2022-08-14T03:08:19;4.82;;;3.00;;
37321;SDS011;23697;48.684;9.032;2022-08-14T03:10:46;4.63;;;3.13;;
37321;SDS011;23697;48.684;9.032;2022-08-14T03:13:14;4.40;;;3.20;;
37321;SDS011;23697;48.684;9.032;2022-08-14T03:15:41;6.50;;;3.30;;
37321;SDS011;23697;48.684;9.032;2022-08-14T03:18:12;5.82;;;3.50;;
37321;SDS011;23697;48.684;9.032;2022-08-14T03:20:39;4.38;;;3.10;;
37321;SDS011;23697;48.684;9.032;2022-08-14T03:23:06;6.78;;;3.30;;
37321;SDS011;23697;48.684;9.032;2022-08-14T03:25:33;5.75;;;3.15;;
37321;SDS011;23697;48.684;9.032;2022-08-14T03:28:02;5.70;;;3.17;;
37321;SDS011;23697;48.684;9.032;2022-08-14T03:30:31;5.38;;;3.30;;
37321;SDS011;23697;48.684;9.032;2022-08-14T03:32:59;6.45;;;3.58;;
37321;SDS011;23697;48.684;9.032;2022-08-14T03:35:28;5.28;;;3.15;;
37321;SDS011;23697;48.684;9.032;2022-08-14T03:37:55;5.65;;;3.47;;
37321;SDS011;23697;48.684;9.032;2022-08-14T03:40:29;4.75;;;3.30;;
37321;SDS011;23697;48.684;9.032;2022-08-14T03:42:56;4.82;;;3.25;;
37321;SDS011;23697;48.684;9.032;2022-08-14T03:45:23;4.28;;;3.30;;
37321;SDS011;23697;48.684;9.032;2022-08-14T03:47:49;6.20;;;3.40;;
37321;SDS011;23697;48.684;9.032;2022-08-14T03:50:16;5.03;;;3.53;;
37321;SDS011;23697;48.684;9.032;2022-08-14T03:52:45;4.40;;;3.40;;
37321;SDS011;23697;48.684;9.032;2022-08-14T03:55:12;6.00;;;3.30;;
37321;SDS011;23697;48.684;9.032;2022-08-14T03:57:39;6.13;;;3.30;;
37321;SDS011;23697;48.684;9.032;2022-08-14T04:00:09;6.72;;;3.60;;
37321;SDS011;23697;48.684;9.032;2022-08-14T04:02:37;5.03;;;3.40;;
37321;SDS011;23697;48.684;9.032;2022-08-14T04:05:04;6.82;;;3.60;;
37321;SDS011;23697;48.684;9.032;2022-08-14T04:07:32;4.85;;;3.20;;
37321;SDS011;23697;48.684;9.032;2022-08-14T04:10:01;5.82;;;3.30;;
37321;SDS011;23697;48.684;9.032;2022-08-14T04:12:28;6.18;;;3.50;;
37321;SDS011;23697;48.684;9.032;2022-08-14T04:14:55;4.72;;;3.20;;
37321;SDS011;23697;48.684;9.032;2022-08-14T04:17:22;5.20;;;3.08;;
37321;SDS011;23697;48.684;9.032;2022-08-14T04:19:50;8.27;;;3.70;;
37321;SDS011;23697;48.684;9.032;2022-08-14T04:22:18;5.85;;;3.15;;
37321;SDS011;23697;48.684;9.032;2022-08-14T04:24:46;5.88;;;3.45;;
37321;SDS011;23697;48.684;9.032;2022-08-14T04:27:14;5.25;;;3.40;;
37321;SDS011;23697;48.684;9.032;2022-08-14T04:29:41;5.72;;;3.42;;
37321;SDS011;23697;48.684;9.032;2022-08-14T04:32:09;6.28;;;3.42;;
37321;SDS011;23697;48.684;9.032;2022-08-14T04:34:36;6.95;;;3.58;;
37321;SDS011;23697;48.684;9.032;2022-08-14T04:37:06;5.22;;;3.50;;
37321;SDS011;23697;48.684;9.032;2022-08-14T04:39:50;5.82;;;3.40;;
37321;SDS011;23697;48.684;9.032;2022-08-14T04:42:37;5.60;;;3.50;;
37321;SDS011;23697;48.684;9.032;2022-08-14T04:45:21;4.97;;;3.40;;
37321;SDS011;23697;48.684;9.032;2022-08-14T04:47:49;4.90;;;3.45;;
37321;SDS011;23697;48.684;9.032;2022-08-14T04:50:34;5.47;;;3.60;;
37321;SDS011;23697;48.684;9.032;2022-08-14T04:53:01;6.70;;;3.60;;
37321;SDS011;23697;48.684;9.032;2022-08-14T04:55:28;6.32;;;3.70;;
37321;SDS011;23697;48.684;9.032;2022-08-14T04:57:57;5.43;;;3.30;;
37321;SDS011;23697;48.684;9.032;2022-08-14T05:00:24;6.22;;;3.60;;
37321;SDS011;23697;48.684;9.032;2022-08-14T05:02:51;4.30;;;3.40;;
37321;SDS011;23697;48.684;9.032;2022-08-14T05:05:20;5.32;;;3.75;;
37321;SDS011;23697;48.684;9.032;2022-08-14T05:07:48;5.30;;;3.55;;
37321;SDS011;23697;48.684;9.032;2022-08-14T05:10:16;6.95;;;3.55;;
37321;SDS011;23697;48.684;9.032;2022-08-14T05:12:50;5.90;;;3.38;;
37321;SDS011;23697;48.684;9.032;2022-08-14T05:15:18;5.93;;;3.80;;
37321;SDS011;23697;48.684;9.032;2022-08-14T05:17:46;5.45;;;3.50;;
37321;SDS011;23697;48.684;9.032;2022-08-14T05:20:14;6.15;;;4.00;;
37321;SDS011;23697;48.684;9.032;2022-08-14T05:22:41;5.78;;;3.60;;
37321;SDS011;23697;48.684;9.032;2022-08-14T05:25:09;7.15;;;4.05;;
37321;SDS011;23697;48.684;9.032;2022-08-14T05:27:36;6.03;;;3.60;;
37321;SDS011;23697;48.684;9.032;2022-08-14T05:30:03;7.82;;;3.55;;
37321;SDS011;23697;48.684;9.032;2022-08-14T05:32:33;7.20;;;3.80;;
37321;SDS011;23697;48.684;9.032;2022-08-14T05:35:00;8.18;;;3.88;;
37321;SDS011;23697;48.684;9.032;2022-08-14T05:37:27;9.52;;;4.15;;
37321;SDS011;23697;48.684;9.032;2022-08-14T05:39:54;5.68;;;3.90;;
37321;SDS011;23697;48.684;9.032;2022-08-14T05:42:22;7.07;;;3.90;;
37321;SDS011;23697;48.684;9.032;2022-08-14T05:44:49;8.02;;;4.20;;
37321;SDS011;23697;48.684;9.032;2022-08-14T05:47:16;6.93;;;3.97;;
37321;SDS011;23697;48.684;9.032;2022-08-14T05:49:44;5.00;;;3.95;;
37321;SDS011;23697;48.684;9.032;2022-08-14T05:52:12;6.07;;;3.88;;
37321;SDS011;23697;48.684;9.032;2022-08-14T05:54:39;7.63;;;4.15;;
37321;SDS011;23697;48.684;9.032;2022-08-14T05:57:06;6.72;;;3.88;;
37321;SDS011;23697;48.684;9.032;2022-08-14T05:59:33;6.22;;;3.70;;
37321;SDS011;23697;48.684;9.032;2022-08-14T06:02:00;6.80;;;4.10;;
37321;SDS011;23697;48.684;9.032;2022-08-14T06:04:27;5.47;;;4.10;;
37321;SDS011;23697;48.684;9.032;2022-08-14T06:06:55;7.60;;;4.05;;
37321;SDS011;23697;48.684;9.032;2022-08-14T06:09:22;5.63;;;3.72;;
37321;SDS011;23697;48.684;9.032;2022-08-14T06:11:49;5.15;;;3.90;;
37321;SDS011;23697;48.684;9.032;2022-08-14T06:14:16;7.15;;;4.03;;
37321;SDS011;23697;48.684;9.032;2022-08-14T06:16:43;6.03;;;4.03;;
37321;SDS011;23697;48.684;9.032;2022-08-14T06:19:11;7.88;;;4.10;;
37321;SDS011;23697;48.684;9.032;2022-08-14T06:21:38;7.03;;;4.20;;
37321;SDS011;23697;48.684;9.032;2022-08-14T06:24:07;5.50;;;3.72;;
37321;SDS011;23697;48.684;9.032;2022-08-14T06:26:34;6.90;;;4.22;;
37321;SDS011;23697;48.684;9.032;2022-08-14T06:29:01;6.93;;;4.00;;
37321;SDS011;23697;48.684;9.032;2022-08-14T06:31:28;6.38;;;3.83;;
37321;SDS011;23697;48.684;9.032;2022-08-14T06:33:55;5.30;;;4.00;;
37321;SDS011;23697;48.684;9.032;2022-08-14T06:36:21;6.28;;;3.80;;
37321;SDS011;23697;48.684;9.032;2022-08-14T06:38:50;5.93;;;3.60;;
37321;SDS011;23697;48.684;9.032;2022-08-14T06:41:18;6.05;;;3.40;;
37321;SDS011;23697;48.684;9.032;2022-08-14T06:43:47;5.50;;;3.38;;
37321;SDS011;23697;48.684;9.032;2022-08-14T06:46:14;5.55;;;3.40;;
37321;SDS011;23697;48.684;9.032;2022-08-14T06:48:42;4.60;;;3.47;;
37321;SDS011;23697;48.684;9.032;2022-08-14T06:51:09;5.95;;;3.42;;
37321;SDS011;23697;48.684;9.032;2022-08-14T06:53:35;6.75;;;3.42;;
37321;SDS011;23697;48.684;9.032;2022-08-14T06:56:03;5.25;;;3.30;;
37321;SDS011;23697;48.684;9.032;2022-08-14T06:58:31;4.20;;;3.10;;
37321;SDS011;23697;48.684;9.032;2022-08-14T07:00:58;4.43;;;2.70;;
37321;SDS011;23697;48.684;9.032;2022-08-14T07:03:43;4.97;;;2.65;;
37321;SDS011;23697;48.684;9.032;2022-08-14T07:06:27;4.20;;;2.60;;
37321;SDS011;23697;48.684;9.032;2022-08-14T07:08:55;3.05;;;2.28;;
37321;SDS011;23697;48.684;9.032;2022-08-14T07:11:22;3.85;;;2.50;;
37321;SDS011;23697;48.684;9.032;2022-08-14T07:13:50;3.25;;;2.45;;
37321;SDS011;23697;48.684;9.032;2022-08-14T07:16:17;4.57;;;2.50;;
37321;SDS011;23697;48.684;9.032;2022-08-14T07:18:44;5.05;;;2.50;;
37321;SDS011;23697;48.684;9.032;2022-08-14T07:21:10;6.65;;;2.47;;
37321;SDS011;23697;48.684;9.032;2022-08-14T07:23:37;3.15;;;2.53;;
37321;SDS011;23697;48.684;9.032;2022-08-14T07:26:04;4.43;;;2.40;;
37321;SDS011;23697;48.684;9.032;2022-08-14T07:28:33;3.53;;;2.50;;
37321;SDS011;23697;48.684;9.032;2022-08-14T07:31:03;4.60;;;2.45;;
37321;SDS011;23697;48.684;9.032;2022-08-14T07:33:33;4.35;;;2.70;;
37321;SDS011;23697;48.684;9.032;2022-08-14T07:36:04;4.45;;;2.20;;
37321;SDS011;23697;48.684;9.032;2022-08-14T07:38:32;3.75;;;2.30;;
37321;SDS011;23697;48.684;9.032;2022-08-14T07:40:59;3.90;;;2.47;;
37321;SDS011;23697;48.684;9.032;2022-08-14T07:43:26;3.35;;;2.30;;
37321;SDS011;23697;48.684;9.032;2022-08-14T07:45:53;4.88;;;2.70;;
37321;SDS011;23697;48.684;9.032;2022-08-14T07:48:22;4.35;;;2.40;;
37321;SDS011;23697;48.684;9.032;2022-08-14T07:50:49;5.50;;;2.60;;
37321;SDS011;23697;48.684;9.032;2022-08-14T07:53:16;4.65;;;2.42;;
37321;SDS011;23697;48.684;9.032;2022-08-14T07:55:43;5.63;;;2.40;;
37321;SDS011;23697;48.684;9.032;2022-08-14T07:58:11;3.00;;;2.38;;
37321;SDS011;23697;48.684;9.032;2022-08-14T08:00:38;3.22;;;2.13;;
37321;SDS011;23697;48.684;9.032;2022-08-14T08:03:06;3.28;;;2.30;;
37321;SDS011;23697;48.684;9.032;2022-08-14T08:05:36;3.38;;;2.20;;
37321;SDS011;23697;48.684;9.032;2022-08-14T08:08:05;3.28;;;2.28;;
37321;SDS011;23697;48.684;9.032;2022-08-14T08:10:33;4.05;;;2.58;;
37321;SDS011;23697;48.684;9.032;2022-08-14T08:13:04;3.75;;;2.47;;
37321;SDS011;23697;48.684;9.032;2022-08-14T08:15:34;3.58;;;2.38;;
37321;SDS011;23697;48.684;9.032;2022-08-14T08:18:03;3.42;;;2.20;;
37321;SDS011;23697;48.684;9.032;2022-08-14T08:20:32;4.07;;;2.15;;
37321;SDS011;23697;48.684;9.032;2022-08-14T08:23:02;5.05;;;2.17;;
37321;SDS011;23697;48.684;9.032;2022-08-14T08:25:31;6.07;;;2.35;;
37321;SDS011;23697;48.684;9.032;2022-08-14T08:28:01;5.10;;;2.20;;
37321;SDS011;23697;48.684;9.032;2022-08-14T08:30:32;3.83;;;2.20;;
37321;SDS011;23697;48.684;9.032;2022-08-14T08:33:00;3.55;;;2.30;;
37321;SDS011;23697;48.684;9.032;2022-08-14T08:35:28;4.85;;;2.17;;
37321;SDS011;23697;48.684;9.032;2022-08-14T08:38:03;4.05;;;2.40;;
37321;SDS011;23697;48.684;9.032;2022-08-14T08:40:32;4.68;;;2.50;;
37321;SDS011;23697;48.684;9.032;2022-08-14T08:43:01;3.13;;;2.42;;
37321;SDS011;23697;48.684;9.032;2022-08-14T08:45:29;3.22;;;2.40;;
37321;SDS011;23697;48.684;9.032;2022-08-14T08:47:56;5.40;;;2.40;;
37321;SDS011;23697;48.684;9.032;2022-08-14T08:50:24;4.50;;;2.50;;
37321;SDS011;23697;48.684;9.032;2022-08-14T08:52:55;4.57;;;2.38;;
37321;SDS011;23697;48.684;9.032;2022-08-14T08:55:29;3.58;;;2.50;;
37321;SDS011;23697;48.684;9.032;2022-08-14T08:57:58;5.43;;;2.45;;
37321;SDS011;23697;48.684;9.032;2022-08-14T09:00:27;4.00;;;2.70;;
37321;SDS011;23697;48.684;9.032;2022-08-14T09:02:59;3.35;;;2.38;;
37321;SDS011;23697;48.684;9.032;2022-08-14T09:05:32;4.00;;;2.38;;
37321;SDS011;23697;48.684;9.032;2022-08-14T09:08:14;5.05;;;2.38;;
37321;SDS011;23697;48.684;9.032;2022-08-14T09:10:45;4.53;;;2.30;;
37321;SDS011;23697;48.684;9.032;2022-08-14T09:13:13;4.72;;;2.20;;
37321;SDS011;23697;48.684;9.032;2022-08-14T09:15:41;4.72;;;2.60;;
37321;SDS011;23697;48.684;9.032;2022-08-14T09:18:09;4.82;;;2.50;;
37321;SDS011;23697;48.684;9.032;2022-08-14T09:20:38;3.33;;;2.33;;
37321;SDS011;23697;48.684;9.032;2022-08-14T09:23:06;5.05;;;2.45;;
37321;SDS011;23697;48.684;9.032;2022-08-14T09:25:34;5.38;;;2.40;;
37321;SDS011;23697;48.684;9.032;2022-08-14T09:28:03;3.75;;;2.28;;
37321;SDS011;23697;48.684;9.032;2022-08-14T09:30:32;7.00;;;2.50;;
37321;SDS011;23697;48.684;9.032;2022-08-14T09:39:29;3.83;;;2.40;;
37321;SDS011;23697;48.684;9.032;2022-08-14T09:42:11;3.53;;;2.40;;
37321;SDS011;23697;48.684;9.032;2022-08-14T09:44:52;5.75;;;3.40;;
37321;SDS011;23697;48.684;9.032;2022-08-14T09:50:23;4.00;;;2.63;;
37321;SDS011;23697;48.684;9.032;2022-08-14T09:52:56;5.13;;;2.60;;
37321;SDS011;23697;48.684;9.032;2022-08-14T09:55:26;6.03;;;4.38;;
37321;SDS011;23697;48.684;9.032;2022-08-14T09:58:09;3.70;;;2.40;;
37321;SDS011;23697;48.684;9.032;2022-08-14T10:00:43;5.15;;;2.50;;
37321;SDS011;23697;48.684;9.032;2022-08-14T10:03:12;10.27;;;7.85;;
37321;SDS011;23697;48.684;9.032;2022-08-14T10:05:49;14.40;;;12.13;;
37321;SDS011;23697;48.684;9.032;2022-08-14T10:08:17;7.55;;;5.20;;
37321;SDS011;23697;48.684;9.032;2022-08-14T10:10:45;8.77;;;2.47;;
37321;SDS011;23697;48.684;9.032;2022-08-14T10:13:20;7.20;;;2.72;;
37321;SDS011;23697;48.684;9.032;2022-08-14T10:15:50;4.95;;;2.50;;
37321;SDS011;23697;48.684;9.032;2022-08-14T10:18:25;6.72;;;2.90;;
37321;SDS011;23697;48.684;9.032;2022-08-14T10:20:53;4.50;;;2.67;;
37321;SDS011;23697;48.684;9.032;2022-08-14T10:23:23;4.45;;;2.53;;
37321;SDS011;23697;48.684;9.032;2022-08-14T10:25:52;5.05;;;2.75;;
37321;SDS011;23697;48.684;9.032;2022-08-14T10:28:23;4.35;;;2.75;;
37321;SDS011;23697;48.684;9.032;2022-08-14T10:30:52;5.35;;;2.50;;
37321;SDS011;23697;48.684;9.032;2022-08-14T10:33:23;4.47;;;2.63;;
37321;SDS011;23697;48.684;9.032;2022-08-14T10:35:55;4.63;;;2.60;;
37321;SDS011;23697;48.684;9.032;2022-08-14T10:38:28;3.92;;;2.40;;
37321;SDS011;23697;48.684;9.032;2022-08-14T10:41:07;3.22;;;2.40;;
37321;SDS011;23697;48.684;9.032;2022-08-14T10:43:37;6.35;;;2.50;;
37321;SDS011;23697;48.684;9.032;2022-08-14T10:46:11;4.38;;;2.50;;
37321;SDS011;23697;48.684;9.032;2022-08-14T10:48:39;4.28;;;2.47;;
37321;SDS011;23697;48.684;9.032;2022-08-14T10:51:07;7.55;;;2.60;;
37321;SDS011;23697;48.684;9.032;2022-08-14T10:53:34;5.38;;;2.60;;
37321;SDS011;23697;48.684;9.032;2022-08-14T10:56:03;5.43;;;2.50;;
37321;SDS011;23697;48.684;9.032;2022-08-14T10:58:35;4.45;;;2.50;;
37321;SDS011;23697;48.684;9.032;2022-08-14T11:01:02;5.57;;;2.60;;
37321;SDS011;23697;48.684;9.032;2022-08-14T11:03:40;48.20;;;3.90;;
37321;SDS011;23697;48.684;9.032;2022-08-14T11:06:17;2.53;;;2.10;;
37321;SDS011;23697;48.684;9.032;2022-08-14T11:08:45;4.03;;;2.10;;
37321;SDS011;23697;48.684;9.032;2022-08-14T11:11:16;3.22;;;2.30;;
37321;SDS011;23697;48.684;9.032;2022-08-14T11:13:45;3.97;;;2.20;;
37321;SDS011;23697;48.684;9.032;2022-08-14T11:16:15;3.40;;;2.58;;
37321;SDS011;23697;48.684;9.032;2022-08-14T11:18:45;4.00;;;2.30;;
37321;SDS011;23697;48.684;9.032;2022-08-14T11:21:15;5.43;;;2.30;;
37321;SDS011;23697;48.684;9.032;2022-08-14T11:23:45;5.70;;;2.40;;
37321;SDS011;23697;48.684;9.032;2022-08-14T11:26:13;7.97;;;2.30;;
37321;SDS011;23697;48.684;9.032;2022-08-14T11:28:44;3.72;;;2.40;;
37321;SDS011;23697;48.684;9.032;2022-08-14T11:31:12;3.83;;;2.33;;
37321;SDS011;23697;48.684;9.032;2022-08-14T11:33:39;4.50;;;2.20;;
37321;SDS011;23697;48.684;9.032;2022-08-14T11:36:09;4.07;;;2.38;;
37321;SDS011;23697;48.684;9.032;2022-08-14T11:38:39;6.80;;;4.50;;
37321;SDS011;23697;48.684;9.032;2022-08-14T11:41:06;4.75;;;3.50;;
37321;SDS011;23697;48.684;9.032;2022-08-14T11:43:37;11.00;;;7.60;;
37321;SDS011;23697;48.684;9.032;2022-08-14T11:46:05;3.92;;;2.40;;
37321;SDS011;23697;48.684;9.032;2022-08-14T11:48:32;4.60;;;2.47;;
37321;SDS011;23697;48.684;9.032;2022-08-14T11:51:12;3.85;;;2.50;;
37321;SDS011;23697;48.684;9.032;2022-08-14T11:53:49;4.20;;;2.17;;
37321;SDS011;23697;48.684;9.032;2022-08-14T11:56:17;3.40;;;2.40;;
37321;SDS011;23697;48.684;9.032;2022-08-14T11:58:44;2.60;;;2.40;;
37321;SDS011;23697;48.684;9.032;2022-08-14T12:01:16;4.43;;;2.08;;
37321;SDS011;23697;48.684;9.032;2022-08-14T12:03:55;4.15;;;2.00;;
37321;SDS011;23697;48.684;9.032;2022-08-14T12:06:42;3.47;;;2.10;;
37321;SDS011;23697;48.684;9.032;2022-08-14T12:09:10;4.13;;;2.30;;
37321;SDS011;23697;48.684;9.032;2022-08-14T12:11:38;5.10;;;2.30;;
37321;SDS011;23697;48.684;9.032;2022-08-14T12:14:05;3.00;;;2.10;;
37321;SDS011;23697;48.684;9.032;2022-08-14T12:16:33;2.97;;;2.20;;
37321;SDS011;23697;48.684;9.032;2022-08-14T12:19:01;2.45;;;2.03;;
37321;SDS011;23697;48.684;9.032;2022-08-14T12:21:30;4.05;;;2.40;;
37321;SDS011;23697;48.684;9.032;2022-08-14T12:24:02;2.10;;;1.90;;
37321;SDS011;23697;48.684;9.032;2022-08-14T12:26:31;3.50;;;2.10;;
37321;SDS011;23697;48.684;9.032;2022-08-14T12:29:03;3.08;;;2.05;;
37321;SDS011;23697;48.684;9.032;2022-08-14T12:31:33;3.10;;;2.15;;
37321;SDS011;23697;48.684;9.032;2022-08-14T12:34:02;3.88;;;2.10;;
37321;SDS011;23697;48.684;9.032;2022-08-14T12:36:32;2.95;;;2.05;;
37321;SDS011;23697;48.684;9.032;2022-08-14T12:39:03;3.35;;;2.10;;
37321;SDS011;23697;48.684;9.032;2022-08-14T12:41:47;2.80;;;2.10;;
37321;SDS011;23697;48.684;9.032;2022-08-14T12:44:16;3.15;;;2.10;;
37321;SDS011;23697;48.684;9.032;2022-08-14T12:47:00;3.90;;;1.98;;
37321;SDS011;23697;48.684;9.032;2022-08-14T12:49:29;2.20;;;1.90;;
37321;SDS011;23697;48.684;9.032;2022-08-14T12:51:57;3.20;;;1.98;;
37321;SDS011;23697;48.684;9.032;2022-08-14T12:54:26;2.97;;;1.98;;
37321;SDS011;23697;48.684;9.032;2022-08-14T12:57:01;4.03;;;1.92;;
37321;SDS011;23697;48.684;9.032;2022-08-14T12:59:30;2.55;;;1.95;;
37321;SDS011;23697;48.684;9.032;2022-08-14T13:01:57;2.65;;;1.88;;
37321;SDS011;23697;48.684;9.032;2022-08-14T13:07:29;2.03;;;1.80;;
37321;SDS011;23697;48.684;9.032;2022-08-14T13:09:57;2.75;;;1.95;;
37321;SDS011;23697;48.684;9.032;2022-08-14T13:12:25;2.50;;;1.70;;
37321;SDS011;23697;48.684;9.032;2022-08-14T13:14:54;3.28;;;1.83;;
37321;SDS011;23697;48.684;9.032;2022-08-14T13:17:23;3.03;;;1.80;;
37321;SDS011;23697;48.684;9.032;2022-08-14T13:19:53;1.70;;;1.60;;
37321;SDS011;23697;48.684;9.032;2022-08-14T13:24:50;2.33;;;1.60;;
37321;SDS011;23697;48.684;9.032;2022-08-14T13:27:20;2.47;;;1.77;;
37321;SDS011;23697;48.684;9.032;2022-08-14T13:29:49;2.00;;;1.80;;
37321;SDS011;23697;48.684;9.032;2022-08-14T13:32:17;3.43;;;1.90;;
37321;SDS011;23697;48.684;9.032;2022-08-14T13:34:46;2.03;;;1.60;;
37321;SDS011;23697;48.684;9.032;2022-08-14T13:37:14;2.67;;;1.80;;
37321;SDS011;23697;48.684;9.032;2022-08-14T13:39:43;2.38;;;1.75;;
37321;SDS011;23697;48.684;9.032;2022-08-14T13:42:13;2.17;;;1.80;;
37321;SDS011;23697;48.684;9.032;2022-08-14T13:44:47;2.40;;;1.80;;
37321;SDS011;23697;48.684;9.032;2022-08-14T13:47:15;2.08;;;1.67;;
37321;SDS011;23697;48.684;9.032;2022-08-14T13:49:44;2.53;;;1.92;;
37321;SDS011;23697;48.684;9.032;2022-08-14T13:52:11;1.90;;;1.60;;
37321;SDS011;23697;48.684;9.032;2022-08-14T13:54:43;3.00;;;1.80;;
37321;SDS011;23697;48.684;9.032;2022-08-14T13:59:42;3.05;;;1.98;;
37321;SDS011;23697;48.684;9.032;2022-08-14T14:02:12;3.53;;;2.00;;
37321;SDS011;23697;48.684;9.032;2022-08-14T14:04:42;2.92;;;1.75;;
37321;SDS011;23697;48.684;9.032;2022-08-14T14:07:11;2.60;;;1.67;;
37321;SDS011;23697;48.684;9.032;2022-08-14T14:09:40;2.95;;;1.80;;
37321;SDS011;23697;48.684;9.032;2022-08-14T14:12:08;2.40;;;1.77;;
37321;SDS011;23697;48.684;9.032;2022-08-14T14:14:36;3.10;;;1.80;;
37321;SDS011;23697;48.684;9.032;2022-08-14T14:17:05;3.65;;;2.08;;
37321;SDS011;23697;48.684;9.032;2022-08-14T14:19:36;2.50;;;2.00;;
37321;SDS011;23697;48.684;9.032;2022-08-14T14:22:05;2.47;;;1.88;;
37321;SDS011;23697;48.684;9.032;2022-08-14T14:24:32;2.10;;;1.73;;
37321;SDS011;23697;48.684;9.032;2022-08-14T14:27:01;2.42;;;1.90;;
37321;SDS011;23697;48.684;9.032;2022-08-14T14:29:29;2.10;;;1.88;;
37321;SDS011;23697;48.684;9.032;2022-08-14T14:31:58;3.47;;;1.90;;
37321;SDS011;23697;48.684;9.032;2022-08-14T14:34:27;2.60;;;2.00;;
37321;SDS011;23697;48.684;9.032;2022-08-14T14:36:58;4.32;;;2.00;;
37321;SDS011;23697;48.684;9.032;2022-08-14T14:39:29;3.88;;;2.00;;
37321;SDS011;23697;48.684;9.032;2022-08-14T14:41:58;2.70;;;2.00;;
37321;SDS011;23697;48.684;9.032;2022-08-14T14:44:30;2.35;;;2.10;;
37321;SDS011;23697;48.684;9.032;2022-08-14T14:46:59;3.05;;;2.20;;
37321;SDS011;23697;48.684;9.032;2022-08-14T14:49:27;2.70;;;2.00;;
37321;SDS011;23697;48.684;9.032;2022-08-14T14:51:54;2.63;;;2.10;;
37321;SDS011;23697;48.684;9.032;2022-08-14T14:54:23;4.15;;;2.13;;
37321;SDS011;23697;48.684;9.032;2022-08-14T14:56:50;4.70;;;2.10;;
37321;SDS011;23697;48.684;9.032;2022-08-14T14:59:18;3.17;;;2.30;;
37321;SDS011;23697;48.684;9.032;2022-08-14T15:01:46;2.42;;;2.10;;
37321;SDS011;23697;48.684;9.032;2022-08-14T15:04:19;3.35;;;2.10;;
37321;SDS011;23697;48.684;9.032;2022-08-14T15:06:46;2.80;;;2.22;;
37321;SDS011;23697;48.684;9.032;2022-08-14T15:09:13;2.72;;;2.10;;
37321;SDS011;23697;48.684;9.032;2022-08-14T15:14:55;3.60;;;2.20;;
37321;SDS011;23697;48.684;9.032;2022-08-14T15:17:22;2.67;;;2.08;;
37321;SDS011;23697;48.684;9.032;2022-08-14T15:19:49;4.18;;;2.45;;
37321;SDS011;23697;48.684;9.032;2022-08-14T15:22:18;3.38;;;2.00;;